sensor_id;sensor_type;location;lat;lon;timestamp;P1;durP1;ratioP1;P2;durP2;ratioP2
15936;SDS011;9163;48.818;8.976;2023-05-10T00:02:15;1.50;;;0.10;;
15936;SDS011;9163;48.818;8.976;2023-05-10T00:04:42;0.20;;;0.10;;
15936;SDS011;9163;48.818;8.976;2023-05-10T00:07:09;0.77;;;0.20;;
15936;SDS011;9163;48.818;8.976;2023-05-10T00:09:38;0.63;;;0.10;;
15936;SDS011;9163;48.818;8.976;2023-05-10T00:12:05;0.30;;;0.20;;
15936;SDS011;9163;48.818;8.976;2023-05-10T00:14:32;1.60;;;0.10;;
15936;SDS011;9163;48.818;8.976;2023-05-10T00:17:00;0.40;;;0.23;;
15936;SDS011;9163;48.818;8.976;2023-05-10T00:19:27;0.13;;;0.10;;
15936;SDS011;9163;48.818;8.976;2023-05-10T00:21:54;0.70;;;0.27;;
15936;SDS011;9163;48.818;8.976;2023-05-10T00:24:21;0.90;;;0.20;;
15936;SDS011;9163;48.818;8.976;2023-05-10T00:26:50;1.00;;;0.30;;
15936;SDS011;9163;48.818;8.976;2023-05-10T00:29:17;1.17;;;0.20;;
15936;SDS011;9163;48.818;8.976;2023-05-10T00:31:45;0.30;;;0.20;;
15936;SDS011;9163;48.818;8.976;2023-05-10T00:34:12;0.40;;;0.30;;
15936;SDS011;9163;48.818;8.976;2023-05-10T00:36:39;0.20;;;0.20;;
15936;SDS011;9163;48.818;8.976;2023-05-10T00:39:07;0.30;;;0.30;;
15936;SDS011;9163;48.818;8.976;2023-05-10T00:41:34;0.30;;;0.27;;
15936;SDS011;9163;48.818;8.976;2023-05-10T00:44:03;0.20;;;0.20;;
15936;SDS011;9163;48.818;8.976;2023-05-10T00:46:30;0.77;;;0.30;;
15936;SDS011;9163;48.818;8.976;2023-05-10T00:48:58;0.30;;;0.20;;
15936;SDS011;9163;48.818;8.976;2023-05-10T00:51:25;0.87;;;0.30;;
15936;SDS011;9163;48.818;8.976;2023-05-10T00:53:53;0.40;;;0.40;;
15936;SDS011;9163;48.818;8.976;2023-05-10T00:56:21;0.90;;;0.40;;
15936;SDS011;9163;48.818;8.976;2023-05-10T00:58:49;0.40;;;0.40;;
15936;SDS011;9163;48.818;8.976;2023-05-10T01:01:18;1.13;;;0.40;;
15936;SDS011;9163;48.818;8.976;2023-05-10T01:03:46;1.30;;;0.40;;
15936;SDS011;9163;48.818;8.976;2023-05-10T01:06:13;1.27;;;0.50;;
15936;SDS011;9163;48.818;8.976;2023-05-10T01:08:40;1.43;;;0.60;;
15936;SDS011;9163;48.818;8.976;2023-05-10T01:11:08;0.90;;;0.60;;
15936;SDS011;9163;48.818;8.976;2023-05-10T01:13:36;0.70;;;0.70;;
15936;SDS011;9163;48.818;8.976;2023-05-10T01:16:05;0.73;;;0.70;;
15936;SDS011;9163;48.818;8.976;2023-05-10T01:18:35;0.80;;;0.63;;
15936;SDS011;9163;48.818;8.976;2023-05-10T01:21:08;1.37;;;0.70;;
15936;SDS011;9163;48.818;8.976;2023-05-10T01:33:24;0.70;;;0.70;;
15936;SDS011;9163;48.818;8.976;2023-05-10T01:35:58;0.70;;;0.60;;
15936;SDS011;9163;48.818;8.976;2023-05-10T01:38:36;0.50;;;0.50;;
15936;SDS011;9163;48.818;8.976;2023-05-10T01:41:11;1.80;;;0.70;;
15936;SDS011;9163;48.818;8.976;2023-05-10T01:43:42;1.33;;;0.70;;
15936;SDS011;9163;48.818;8.976;2023-05-10T01:46:20;1.10;;;0.70;;
15936;SDS011;9163;48.818;8.976;2023-05-10T01:48:55;1.43;;;0.70;;
15936;SDS011;9163;48.818;8.976;2023-05-10T01:51:25;0.93;;;0.60;;
15936;SDS011;9163;48.818;8.976;2023-05-10T01:53:58;0.80;;;0.80;;
15936;SDS011;9163;48.818;8.976;2023-05-10T01:56:27;0.60;;;0.60;;
15936;SDS011;9163;48.818;8.976;2023-05-10T01:58:57;1.50;;;0.80;;
15936;SDS011;9163;48.818;8.976;2023-05-10T02:01:26;1.30;;;0.83;;
15936;SDS011;9163;48.818;8.976;2023-05-10T02:03:56;0.90;;;0.90;;
15936;SDS011;9163;48.818;8.976;2023-05-10T02:06:24;1.80;;;0.70;;
15936;SDS011;9163;48.818;8.976;2023-05-10T02:08:53;1.10;;;0.97;;
15936;SDS011;9163;48.818;8.976;2023-05-10T02:11:21;0.70;;;0.70;;
15936;SDS011;9163;48.818;8.976;2023-05-10T02:13:50;1.10;;;1.00;;
15936;SDS011;9163;48.818;8.976;2023-05-10T02:16:20;1.67;;;1.00;;
15936;SDS011;9163;48.818;8.976;2023-05-10T02:18:50;1.37;;;1.00;;
15936;SDS011;9163;48.818;8.976;2023-05-10T02:21:23;1.10;;;0.90;;
15936;SDS011;9163;48.818;8.976;2023-05-10T02:23:58;1.83;;;1.20;;
15936;SDS011;9163;48.818;8.976;2023-05-10T02:26:29;1.37;;;1.00;;
15936;SDS011;9163;48.818;8.976;2023-05-10T02:28:59;2.60;;;1.43;;
15936;SDS011;9163;48.818;8.976;2023-05-10T02:31:29;1.63;;;1.20;;
15936;SDS011;9163;48.818;8.976;2023-05-10T02:33:58;2.00;;;1.30;;
15936;SDS011;9163;48.818;8.976;2023-05-10T02:36:29;2.37;;;1.40;;
15936;SDS011;9163;48.818;8.976;2023-05-10T02:38:57;2.00;;;1.30;;
15936;SDS011;9163;48.818;8.976;2023-05-10T02:41:28;3.03;;;1.43;;
15936;SDS011;9163;48.818;8.976;2023-05-10T02:43:59;2.47;;;1.03;;
15936;SDS011;9163;48.818;8.976;2023-05-10T02:46:28;2.17;;;1.10;;
15936;SDS011;9163;48.818;8.976;2023-05-10T02:48:55;1.27;;;1.17;;
15936;SDS011;9163;48.818;8.976;2023-05-10T02:51:23;2.03;;;1.33;;
15936;SDS011;9163;48.818;8.976;2023-05-10T02:53:56;1.33;;;1.20;;
15936;SDS011;9163;48.818;8.976;2023-05-10T02:56:28;2.27;;;1.30;;
15936;SDS011;9163;48.818;8.976;2023-05-10T02:58:59;3.00;;;1.50;;
15936;SDS011;9163;48.818;8.976;2023-05-10T03:01:27;2.10;;;1.60;;
15936;SDS011;9163;48.818;8.976;2023-05-10T03:03:54;2.47;;;1.73;;
15936;SDS011;9163;48.818;8.976;2023-05-10T03:06:22;2.30;;;2.10;;
15936;SDS011;9163;48.818;8.976;2023-05-10T03:08:51;3.07;;;2.30;;
15936;SDS011;9163;48.818;8.976;2023-05-10T03:11:27;4.70;;;2.50;;
15936;SDS011;9163;48.818;8.976;2023-05-10T03:14:08;2.30;;;2.10;;
15936;SDS011;9163;48.818;8.976;2023-05-10T03:16:46;2.37;;;1.90;;
15936;SDS011;9163;48.818;8.976;2023-05-10T03:19:22;3.33;;;1.60;;
15936;SDS011;9163;48.818;8.976;2023-05-10T03:21:58;2.47;;;1.67;;
15936;SDS011;9163;48.818;8.976;2023-05-10T03:24:35;1.63;;;1.53;;
15936;SDS011;9163;48.818;8.976;2023-05-10T03:27:07;3.40;;;1.93;;
15936;SDS011;9163;48.818;8.976;2023-05-10T03:29:35;2.07;;;1.87;;
15936;SDS011;9163;48.818;8.976;2023-05-10T03:32:04;2.43;;;2.10;;
15936;SDS011;9163;48.818;8.976;2023-05-10T03:34:32;2.10;;;1.90;;
15936;SDS011;9163;48.818;8.976;2023-05-10T03:36:59;3.60;;;2.33;;
15936;SDS011;9163;48.818;8.976;2023-05-10T03:39:26;2.37;;;2.17;;
15936;SDS011;9163;48.818;8.976;2023-05-10T03:41:55;4.37;;;2.20;;
15936;SDS011;9163;48.818;8.976;2023-05-10T03:44:24;2.17;;;1.97;;
15936;SDS011;9163;48.818;8.976;2023-05-10T03:46:51;3.27;;;2.10;;
15936;SDS011;9163;48.818;8.976;2023-05-10T03:49:19;2.83;;;1.97;;
15936;SDS011;9163;48.818;8.976;2023-05-10T03:51:46;2.13;;;2.00;;
15936;SDS011;9163;48.818;8.976;2023-05-10T03:54:13;2.33;;;2.13;;
15936;SDS011;9163;48.818;8.976;2023-05-10T03:56:41;3.37;;;2.20;;
15936;SDS011;9163;48.818;8.976;2023-05-10T03:59:08;3.10;;;2.40;;
15936;SDS011;9163;48.818;8.976;2023-05-10T04:01:37;4.97;;;2.50;;
15936;SDS011;9163;48.818;8.976;2023-05-10T04:04:04;2.83;;;2.30;;
15936;SDS011;9163;48.818;8.976;2023-05-10T04:06:31;3.30;;;2.23;;
15936;SDS011;9163;48.818;8.976;2023-05-10T04:08:59;3.43;;;2.60;;
15936;SDS011;9163;48.818;8.976;2023-05-10T04:11:29;2.40;;;2.00;;
15936;SDS011;9163;48.818;8.976;2023-05-10T04:13:56;2.87;;;2.10;;
15936;SDS011;9163;48.818;8.976;2023-05-10T04:16:24;3.13;;;2.30;;
15936;SDS011;9163;48.818;8.976;2023-05-10T04:18:52;3.97;;;2.30;;
15936;SDS011;9163;48.818;8.976;2023-05-10T04:21:19;2.93;;;2.00;;
15936;SDS011;9163;48.818;8.976;2023-05-10T04:23:47;4.23;;;2.10;;
15936;SDS011;9163;48.818;8.976;2023-05-10T04:26:14;2.93;;;1.90;;
15936;SDS011;9163;48.818;8.976;2023-05-10T04:28:41;2.27;;;1.90;;
15936;SDS011;9163;48.818;8.976;2023-05-10T04:31:09;3.77;;;2.30;;
15936;SDS011;9163;48.818;8.976;2023-05-10T04:33:37;2.77;;;2.10;;
15936;SDS011;9163;48.818;8.976;2023-05-10T04:36:05;3.17;;;2.13;;
15936;SDS011;9163;48.818;8.976;2023-05-10T04:38:33;2.83;;;1.90;;
15936;SDS011;9163;48.818;8.976;2023-05-10T04:41:03;2.37;;;1.90;;
15936;SDS011;9163;48.818;8.976;2023-05-10T04:43:31;4.57;;;1.90;;
15936;SDS011;9163;48.818;8.976;2023-05-10T04:45:59;2.73;;;2.00;;
15936;SDS011;9163;48.818;8.976;2023-05-10T04:48:26;2.67;;;2.43;;
15936;SDS011;9163;48.818;8.976;2023-05-10T04:50:53;3.30;;;2.00;;
15936;SDS011;9163;48.818;8.976;2023-05-10T04:53:22;2.10;;;1.90;;
15936;SDS011;9163;48.818;8.976;2023-05-10T04:55:49;2.40;;;2.20;;
15936;SDS011;9163;48.818;8.976;2023-05-10T04:58:16;2.90;;;2.17;;
15936;SDS011;9163;48.818;8.976;2023-05-10T05:00:43;2.60;;;2.00;;
15936;SDS011;9163;48.818;8.976;2023-05-10T05:03:11;2.40;;;1.97;;
15936;SDS011;9163;48.818;8.976;2023-05-10T05:05:38;2.80;;;1.90;;
15936;SDS011;9163;48.818;8.976;2023-05-10T05:08:05;2.80;;;2.13;;
15936;SDS011;9163;48.818;8.976;2023-05-10T05:10:33;4.50;;;2.10;;
15936;SDS011;9163;48.818;8.976;2023-05-10T05:13:01;2.33;;;2.13;;
15936;SDS011;9163;48.818;8.976;2023-05-10T05:15:28;2.20;;;2.03;;
15936;SDS011;9163;48.818;8.976;2023-05-10T05:17:56;4.07;;;2.37;;
15936;SDS011;9163;48.818;8.976;2023-05-10T05:20:23;2.17;;;1.93;;
15936;SDS011;9163;48.818;8.976;2023-05-10T05:22:50;2.40;;;2.20;;
15936;SDS011;9163;48.818;8.976;2023-05-10T05:25:17;2.60;;;2.30;;
15936;SDS011;9163;48.818;8.976;2023-05-10T05:27:46;3.20;;;1.90;;
15936;SDS011;9163;48.818;8.976;2023-05-10T05:30:13;2.60;;;1.80;;
15936;SDS011;9163;48.818;8.976;2023-05-10T05:32:40;3.47;;;2.03;;
15936;SDS011;9163;48.818;8.976;2023-05-10T05:35:07;2.40;;;2.20;;
15936;SDS011;9163;48.818;8.976;2023-05-10T05:37:35;2.20;;;2.00;;
15936;SDS011;9163;48.818;8.976;2023-05-10T05:40:02;3.03;;;2.20;;
15936;SDS011;9163;48.818;8.976;2023-05-10T05:42:30;3.67;;;2.40;;
15936;SDS011;9163;48.818;8.976;2023-05-10T05:44:59;3.30;;;2.43;;
15936;SDS011;9163;48.818;8.976;2023-05-10T05:47:26;2.43;;;2.23;;
15936;SDS011;9163;48.818;8.976;2023-05-10T05:49:53;3.70;;;2.10;;
15936;SDS011;9163;48.818;8.976;2023-05-10T05:52:21;3.13;;;2.80;;
15936;SDS011;9163;48.818;8.976;2023-05-10T05:54:48;2.60;;;2.40;;
15936;SDS011;9163;48.818;8.976;2023-05-10T05:57:15;3.60;;;2.43;;
15936;SDS011;9163;48.818;8.976;2023-05-10T05:59:42;3.03;;;2.33;;
15936;SDS011;9163;48.818;8.976;2023-05-10T06:02:11;2.60;;;2.33;;
15936;SDS011;9163;48.818;8.976;2023-05-10T06:04:39;4.60;;;2.57;;
15936;SDS011;9163;48.818;8.976;2023-05-10T06:07:06;4.97;;;2.50;;
15936;SDS011;9163;48.818;8.976;2023-05-10T06:09:33;3.00;;;2.43;;
15936;SDS011;9163;48.818;8.976;2023-05-10T06:12:00;2.90;;;2.60;;
15936;SDS011;9163;48.818;8.976;2023-05-10T06:14:27;2.43;;;2.23;;
15936;SDS011;9163;48.818;8.976;2023-05-10T06:16:55;3.53;;;2.00;;
15936;SDS011;9163;48.818;8.976;2023-05-10T06:19:23;3.80;;;2.10;;
15936;SDS011;9163;48.818;8.976;2023-05-10T06:21:51;2.20;;;1.90;;
15936;SDS011;9163;48.818;8.976;2023-05-10T06:24:19;2.50;;;2.30;;
15936;SDS011;9163;48.818;8.976;2023-05-10T06:26:46;2.27;;;2.07;;
15936;SDS011;9163;48.818;8.976;2023-05-10T06:29:15;3.53;;;1.93;;
15936;SDS011;9163;48.818;8.976;2023-05-10T06:31:43;2.33;;;2.00;;
15936;SDS011;9163;48.818;8.976;2023-05-10T06:34:10;3.67;;;1.80;;
15936;SDS011;9163;48.818;8.976;2023-05-10T06:36:39;2.50;;;2.10;;
15936;SDS011;9163;48.818;8.976;2023-05-10T06:39:06;4.23;;;1.73;;
15936;SDS011;9163;48.818;8.976;2023-05-10T06:41:33;2.93;;;2.00;;
15936;SDS011;9163;48.818;8.976;2023-05-10T06:44:01;3.37;;;1.70;;
15936;SDS011;9163;48.818;8.976;2023-05-10T06:46:29;3.97;;;1.80;;
15936;SDS011;9163;48.818;8.976;2023-05-10T06:48:56;2.17;;;1.70;;
15936;SDS011;9163;48.818;8.976;2023-05-10T06:51:23;3.80;;;1.47;;
15936;SDS011;9163;48.818;8.976;2023-05-10T06:53:52;2.47;;;1.60;;
15936;SDS011;9163;48.818;8.976;2023-05-10T06:56:19;2.70;;;1.60;;
15936;SDS011;9163;48.818;8.976;2023-05-10T06:58:47;1.77;;;1.67;;
15936;SDS011;9163;48.818;8.976;2023-05-10T07:01:14;2.80;;;1.90;;
15936;SDS011;9163;48.818;8.976;2023-05-10T07:03:41;1.40;;;1.23;;
15936;SDS011;9163;48.818;8.976;2023-05-10T07:06:08;5.30;;;1.67;;
15936;SDS011;9163;48.818;8.976;2023-05-10T07:08:36;1.47;;;1.20;;
15936;SDS011;9163;48.818;8.976;2023-05-10T07:11:05;2.73;;;1.10;;
15936;SDS011;9163;48.818;8.976;2023-05-10T07:13:33;3.77;;;1.40;;
15936;SDS011;9163;48.818;8.976;2023-05-10T07:16:01;2.17;;;1.13;;
15936;SDS011;9163;48.818;8.976;2023-05-10T07:18:29;1.90;;;1.30;;
15936;SDS011;9163;48.818;8.976;2023-05-10T07:20:56;1.73;;;1.33;;
15936;SDS011;9163;48.818;8.976;2023-05-10T07:23:24;2.73;;;1.40;;
15936;SDS011;9163;48.818;8.976;2023-05-10T07:25:51;1.53;;;1.30;;
15936;SDS011;9163;48.818;8.976;2023-05-10T07:28:20;3.33;;;1.43;;
15936;SDS011;9163;48.818;8.976;2023-05-10T07:30:47;1.90;;;1.40;;
15936;SDS011;9163;48.818;8.976;2023-05-10T07:33:14;2.27;;;1.33;;
15936;SDS011;9163;48.818;8.976;2023-05-10T07:35:42;1.67;;;1.20;;
15936;SDS011;9163;48.818;8.976;2023-05-10T07:38:09;1.50;;;1.40;;
15936;SDS011;9163;48.818;8.976;2023-05-10T07:40:37;1.60;;;0.97;;
15936;SDS011;9163;48.818;8.976;2023-05-10T07:43:05;1.57;;;1.23;;
15936;SDS011;9163;48.818;8.976;2023-05-10T07:45:34;1.30;;;0.90;;
15936;SDS011;9163;48.818;8.976;2023-05-10T07:48:01;2.33;;;0.80;;
15936;SDS011;9163;48.818;8.976;2023-05-10T07:50:28;3.43;;;0.77;;
15936;SDS011;9163;48.818;8.976;2023-05-10T07:52:56;3.10;;;1.00;;
15936;SDS011;9163;48.818;8.976;2023-05-10T07:55:23;1.20;;;0.70;;
15936;SDS011;9163;48.818;8.976;2023-05-10T07:57:50;1.33;;;0.80;;
15936;SDS011;9163;48.818;8.976;2023-05-10T08:00:19;1.03;;;0.50;;
15936;SDS011;9163;48.818;8.976;2023-05-10T08:02:48;3.47;;;0.70;;
15936;SDS011;9163;48.818;8.976;2023-05-10T08:05:15;3.13;;;0.80;;
15936;SDS011;9163;48.818;8.976;2023-05-10T08:07:42;0.60;;;0.60;;
15936;SDS011;9163;48.818;8.976;2023-05-10T08:10:09;0.50;;;0.50;;
15936;SDS011;9163;48.818;8.976;2023-05-10T08:12:37;1.00;;;0.53;;
15936;SDS011;9163;48.818;8.976;2023-05-10T08:15:05;3.53;;;1.37;;
15936;SDS011;9163;48.818;8.976;2023-05-10T08:17:33;1.00;;;0.60;;
15936;SDS011;9163;48.818;8.976;2023-05-10T08:20:02;3.00;;;0.70;;
15936;SDS011;9163;48.818;8.976;2023-05-10T08:22:29;2.50;;;0.80;;
15936;SDS011;9163;48.818;8.976;2023-05-10T08:24:56;2.07;;;0.50;;
15936;SDS011;9163;48.818;8.976;2023-05-10T08:27:24;1.00;;;0.60;;
15936;SDS011;9163;48.818;8.976;2023-05-10T08:29:51;1.00;;;0.77;;
15936;SDS011;9163;48.818;8.976;2023-05-10T08:32:18;1.70;;;0.60;;
15936;SDS011;9163;48.818;8.976;2023-05-10T08:34:45;0.97;;;0.60;;
15936;SDS011;9163;48.818;8.976;2023-05-10T08:37:14;1.90;;;0.60;;
15936;SDS011;9163;48.818;8.976;2023-05-10T08:39:41;0.50;;;0.50;;
15936;SDS011;9163;48.818;8.976;2023-05-10T08:42:09;1.07;;;0.50;;
15936;SDS011;9163;48.818;8.976;2023-05-10T08:44:37;0.40;;;0.40;;
15936;SDS011;9163;48.818;8.976;2023-05-10T08:47:05;1.23;;;0.30;;
15936;SDS011;9163;48.818;8.976;2023-05-10T08:49:33;2.60;;;1.40;;
15936;SDS011;9163;48.818;8.976;2023-05-10T08:52:01;3.27;;;0.90;;
15936;SDS011;9163;48.818;8.976;2023-05-10T08:54:34;1.93;;;0.60;;
15936;SDS011;9163;48.818;8.976;2023-05-10T08:57:02;0.63;;;0.60;;
15936;SDS011;9163;48.818;8.976;2023-05-10T08:59:30;0.87;;;0.77;;
15936;SDS011;9163;48.818;8.976;2023-05-10T09:01:58;1.20;;;0.40;;
15936;SDS011;9163;48.818;8.976;2023-05-10T09:04:26;1.00;;;0.50;;
15936;SDS011;9163;48.818;8.976;2023-05-10T09:06:54;1.70;;;0.50;;
15936;SDS011;9163;48.818;8.976;2023-05-10T09:09:21;2.03;;;0.40;;
15936;SDS011;9163;48.818;8.976;2023-05-10T09:11:52;1.70;;;0.43;;
15936;SDS011;9163;48.818;8.976;2023-05-10T09:14:20;3.70;;;0.40;;
15936;SDS011;9163;48.818;8.976;2023-05-10T09:16:51;2.30;;;0.40;;
15936;SDS011;9163;48.818;8.976;2023-05-10T09:19:19;1.30;;;0.50;;
15936;SDS011;9163;48.818;8.976;2023-05-10T09:21:46;0.70;;;0.60;;
15936;SDS011;9163;48.818;8.976;2023-05-10T09:24:15;0.90;;;0.50;;
15936;SDS011;9163;48.818;8.976;2023-05-10T09:26:45;0.40;;;0.40;;
15936;SDS011;9163;48.818;8.976;2023-05-10T09:29:15;0.67;;;0.40;;
15936;SDS011;9163;48.818;8.976;2023-05-10T09:31:43;1.23;;;0.37;;
15936;SDS011;9163;48.818;8.976;2023-05-10T09:34:15;0.40;;;0.40;;
15936;SDS011;9163;48.818;8.976;2023-05-10T09:36:50;1.13;;;0.60;;
15936;SDS011;9163;48.818;8.976;2023-05-10T09:39:19;0.87;;;0.33;;
15936;SDS011;9163;48.818;8.976;2023-05-10T09:41:47;0.70;;;0.50;;
15936;SDS011;9163;48.818;8.976;2023-05-10T09:44:17;0.60;;;0.60;;
15936;SDS011;9163;48.818;8.976;2023-05-10T09:46:49;1.80;;;0.60;;
15936;SDS011;9163;48.818;8.976;2023-05-10T09:49:18;0.50;;;0.50;;
15936;SDS011;9163;48.818;8.976;2023-05-10T09:51:45;2.40;;;0.50;;
15936;SDS011;9163;48.818;8.976;2023-05-10T09:54:13;0.60;;;0.50;;
15936;SDS011;9163;48.818;8.976;2023-05-10T09:56:41;1.63;;;0.37;;
15936;SDS011;9163;48.818;8.976;2023-05-10T09:59:10;0.73;;;0.40;;
15936;SDS011;9163;48.818;8.976;2023-05-10T10:01:39;1.03;;;0.50;;
15936;SDS011;9163;48.818;8.976;2023-05-10T10:04:08;1.33;;;0.40;;
15936;SDS011;9163;48.818;8.976;2023-05-10T10:06:36;1.27;;;0.43;;
15936;SDS011;9163;48.818;8.976;2023-05-10T10:09:04;1.80;;;1.07;;
15936;SDS011;9163;48.818;8.976;2023-05-10T10:11:33;1.20;;;0.40;;
15936;SDS011;9163;48.818;8.976;2023-05-10T10:14:01;2.07;;;0.73;;
15936;SDS011;9163;48.818;8.976;2023-05-10T10:16:29;2.70;;;0.60;;
15936;SDS011;9163;48.818;8.976;2023-05-10T10:18:58;1.90;;;0.77;;
15936;SDS011;9163;48.818;8.976;2023-05-10T10:21:25;0.50;;;0.40;;
15936;SDS011;9163;48.818;8.976;2023-05-10T10:23:53;1.13;;;0.50;;
15936;SDS011;9163;48.818;8.976;2023-05-10T10:26:20;0.90;;;0.40;;
15936;SDS011;9163;48.818;8.976;2023-05-10T10:28:49;0.93;;;0.50;;
15936;SDS011;9163;48.818;8.976;2023-05-10T10:31:25;0.73;;;0.33;;
15936;SDS011;9163;48.818;8.976;2023-05-10T10:34:01;0.50;;;0.30;;
15936;SDS011;9163;48.818;8.976;2023-05-10T10:36:33;1.37;;;0.40;;
15936;SDS011;9163;48.818;8.976;2023-05-10T10:39:08;0.80;;;0.40;;
15936;SDS011;9163;48.818;8.976;2023-05-10T10:41:38;1.70;;;0.50;;
15936;SDS011;9163;48.818;8.976;2023-05-10T10:47:04;3.07;;;0.50;;
15936;SDS011;9163;48.818;8.976;2023-05-10T10:49:41;1.47;;;0.50;;
15936;SDS011;9163;48.818;8.976;2023-05-10T10:52:13;1.40;;;0.50;;
15936;SDS011;9163;48.818;8.976;2023-05-10T10:54:46;1.00;;;0.40;;
15936;SDS011;9163;48.818;8.976;2023-05-10T10:57:18;1.33;;;0.50;;
15936;SDS011;9163;48.818;8.976;2023-05-10T10:59:48;1.17;;;0.33;;
15936;SDS011;9163;48.818;8.976;2023-05-10T11:02:34;1.20;;;0.30;;
15936;SDS011;9163;48.818;8.976;2023-05-10T11:05:25;1.33;;;0.40;;
15936;SDS011;9163;48.818;8.976;2023-05-10T11:08:11;1.13;;;0.50;;
15936;SDS011;9163;48.818;8.976;2023-05-10T11:10:50;0.70;;;0.50;;
15936;SDS011;9163;48.818;8.976;2023-05-10T11:13:28;2.00;;;1.27;;
15936;SDS011;9163;48.818;8.976;2023-05-10T11:15:56;1.70;;;0.60;;
15936;SDS011;9163;48.818;8.976;2023-05-10T11:18:25;2.30;;;1.00;;
15936;SDS011;9163;48.818;8.976;2023-05-10T11:20:56;1.63;;;0.67;;
15936;SDS011;9163;48.818;8.976;2023-05-10T11:23:28;2.47;;;0.60;;
15936;SDS011;9163;48.818;8.976;2023-05-10T11:25:57;1.00;;;0.50;;
15936;SDS011;9163;48.818;8.976;2023-05-10T11:28:26;3.87;;;0.70;;
15936;SDS011;9163;48.818;8.976;2023-05-10T11:30:53;5.40;;;0.80;;
15936;SDS011;9163;48.818;8.976;2023-05-10T11:33:22;2.30;;;0.80;;
15936;SDS011;9163;48.818;8.976;2023-05-10T11:35:49;3.13;;;0.87;;
15936;SDS011;9163;48.818;8.976;2023-05-10T11:38:18;1.63;;;0.80;;
15936;SDS011;9163;48.818;8.976;2023-05-10T11:40:45;1.03;;;0.87;;
15936;SDS011;9163;48.818;8.976;2023-05-10T11:43:12;4.03;;;1.20;;
15936;SDS011;9163;48.818;8.976;2023-05-10T11:45:41;1.53;;;0.70;;
15936;SDS011;9163;48.818;8.976;2023-05-10T11:48:08;3.23;;;0.80;;
15936;SDS011;9163;48.818;8.976;2023-05-10T11:50:36;1.77;;;0.90;;
15936;SDS011;9163;48.818;8.976;2023-05-10T11:53:03;1.50;;;0.80;;
15936;SDS011;9163;48.818;8.976;2023-05-10T11:55:34;1.60;;;0.70;;
15936;SDS011;9163;48.818;8.976;2023-05-10T11:58:01;4.27;;;0.97;;
15936;SDS011;9163;48.818;8.976;2023-05-10T12:00:29;2.17;;;0.80;;
15936;SDS011;9163;48.818;8.976;2023-05-10T12:02:58;2.50;;;0.67;;
15936;SDS011;9163;48.818;8.976;2023-05-10T12:05:27;3.03;;;1.00;;
15936;SDS011;9163;48.818;8.976;2023-05-10T12:08:10;2.23;;;0.70;;
15936;SDS011;9163;48.818;8.976;2023-05-10T12:10:39;3.87;;;0.80;;
15936;SDS011;9163;48.818;8.976;2023-05-10T12:13:10;1.33;;;0.70;;
15936;SDS011;9163;48.818;8.976;2023-05-10T12:15:38;2.43;;;0.70;;
15936;SDS011;9163;48.818;8.976;2023-05-10T12:18:05;2.60;;;0.77;;
15936;SDS011;9163;48.818;8.976;2023-05-10T12:20:34;2.60;;;0.60;;
15936;SDS011;9163;48.818;8.976;2023-05-10T12:23:02;1.47;;;0.70;;
15936;SDS011;9163;48.818;8.976;2023-05-10T12:25:31;1.37;;;0.70;;
15936;SDS011;9163;48.818;8.976;2023-05-10T12:28:02;3.17;;;0.63;;
15936;SDS011;9163;48.818;8.976;2023-05-10T12:30:32;2.93;;;0.87;;
15936;SDS011;9163;48.818;8.976;2023-05-10T12:33:00;1.80;;;0.60;;
15936;SDS011;9163;48.818;8.976;2023-05-10T12:35:31;2.27;;;0.80;;
15936;SDS011;9163;48.818;8.976;2023-05-10T12:37:59;1.70;;;0.80;;
15936;SDS011;9163;48.818;8.976;2023-05-10T12:40:26;1.23;;;0.90;;
15936;SDS011;9163;48.818;8.976;2023-05-10T12:42:54;3.80;;;1.00;;
15936;SDS011;9163;48.818;8.976;2023-05-10T12:45:23;2.23;;;0.80;;
15936;SDS011;9163;48.818;8.976;2023-05-10T12:47:50;2.43;;;0.50;;
15936;SDS011;9163;48.818;8.976;2023-05-10T12:50:18;1.30;;;0.80;;
15936;SDS011;9163;48.818;8.976;2023-05-10T12:52:45;4.00;;;1.10;;
15936;SDS011;9163;48.818;8.976;2023-05-10T12:55:13;1.33;;;0.60;;
15936;SDS011;9163;48.818;8.976;2023-05-10T12:57:40;2.60;;;0.80;;
15936;SDS011;9163;48.818;8.976;2023-05-10T13:00:08;2.13;;;0.60;;
15936;SDS011;9163;48.818;8.976;2023-05-10T13:02:37;2.20;;;0.67;;
15936;SDS011;9163;48.818;8.976;2023-05-10T13:05:05;2.27;;;0.70;;
15936;SDS011;9163;48.818;8.976;2023-05-10T13:07:32;2.30;;;0.70;;
15936;SDS011;9163;48.818;8.976;2023-05-10T13:10:00;2.37;;;0.70;;
15936;SDS011;9163;48.818;8.976;2023-05-10T13:12:27;2.57;;;0.60;;
15936;SDS011;9163;48.818;8.976;2023-05-10T13:14:54;2.07;;;0.60;;
15936;SDS011;9163;48.818;8.976;2023-05-10T13:17:22;2.17;;;0.73;;
15936;SDS011;9163;48.818;8.976;2023-05-10T13:19:50;6.40;;;0.77;;
15936;SDS011;9163;48.818;8.976;2023-05-10T13:22:18;2.87;;;0.70;;
15936;SDS011;9163;48.818;8.976;2023-05-10T13:24:45;2.47;;;0.63;;
15936;SDS011;9163;48.818;8.976;2023-05-10T13:27:12;1.97;;;0.70;;
15936;SDS011;9163;48.818;8.976;2023-05-10T13:29:39;0.73;;;0.50;;
15936;SDS011;9163;48.818;8.976;2023-05-10T13:32:07;1.70;;;0.50;;
15936;SDS011;9163;48.818;8.976;2023-05-10T13:34:34;2.10;;;0.60;;
15936;SDS011;9163;48.818;8.976;2023-05-10T13:37:03;2.47;;;0.70;;
15936;SDS011;9163;48.818;8.976;2023-05-10T13:39:30;1.57;;;0.60;;
15936;SDS011;9163;48.818;8.976;2023-05-10T13:41:59;1.67;;;0.50;;
15936;SDS011;9163;48.818;8.976;2023-05-10T13:44:27;3.50;;;0.70;;
15936;SDS011;9163;48.818;8.976;2023-05-10T13:46:54;1.83;;;0.70;;
15936;SDS011;9163;48.818;8.976;2023-05-10T13:49:22;0.80;;;0.40;;
15936;SDS011;9163;48.818;8.976;2023-05-10T13:51:49;2.10;;;0.60;;
15936;SDS011;9163;48.818;8.976;2023-05-10T13:54:18;2.10;;;0.67;;
15936;SDS011;9163;48.818;8.976;2023-05-10T13:56:47;1.73;;;0.60;;
15936;SDS011;9163;48.818;8.976;2023-05-10T13:59:14;2.00;;;0.57;;
15936;SDS011;9163;48.818;8.976;2023-05-10T14:01:42;1.13;;;0.50;;
15936;SDS011;9163;48.818;8.976;2023-05-10T14:04:09;1.23;;;0.47;;
15936;SDS011;9163;48.818;8.976;2023-05-10T14:06:37;2.17;;;0.70;;
15936;SDS011;9163;48.818;8.976;2023-05-10T14:09:04;2.37;;;0.60;;
15936;SDS011;9163;48.818;8.976;2023-05-10T14:11:33;4.40;;;0.87;;
15936;SDS011;9163;48.818;8.976;2023-05-10T14:14:00;1.73;;;0.60;;
15936;SDS011;9163;48.818;8.976;2023-05-10T14:16:27;2.23;;;0.60;;
15936;SDS011;9163;48.818;8.976;2023-05-10T14:18:55;1.70;;;0.50;;
15936;SDS011;9163;48.818;8.976;2023-05-10T14:21:22;1.10;;;0.60;;
15936;SDS011;9163;48.818;8.976;2023-05-10T14:23:49;2.73;;;0.50;;
15936;SDS011;9163;48.818;8.976;2023-05-10T14:26:17;1.47;;;0.60;;
15936;SDS011;9163;48.818;8.976;2023-05-10T14:28:45;2.70;;;0.57;;
15936;SDS011;9163;48.818;8.976;2023-05-10T14:31:12;3.07;;;0.83;;
15936;SDS011;9163;48.818;8.976;2023-05-10T14:33:40;1.47;;;0.50;;
15936;SDS011;9163;48.818;8.976;2023-05-10T14:36:07;3.00;;;0.50;;
15936;SDS011;9163;48.818;8.976;2023-05-10T14:38:35;3.00;;;0.60;;
15936;SDS011;9163;48.818;8.976;2023-05-10T14:41:02;1.43;;;0.40;;
15936;SDS011;9163;48.818;8.976;2023-05-10T14:43:29;1.00;;;0.40;;
15936;SDS011;9163;48.818;8.976;2023-05-10T14:45:58;1.93;;;0.60;;
15936;SDS011;9163;48.818;8.976;2023-05-10T14:48:25;1.80;;;0.50;;
15936;SDS011;9163;48.818;8.976;2023-05-10T14:50:52;1.53;;;0.60;;
15936;SDS011;9163;48.818;8.976;2023-05-10T14:53:19;1.67;;;0.50;;
15936;SDS011;9163;48.818;8.976;2023-05-10T14:55:47;1.70;;;0.50;;
15936;SDS011;9163;48.818;8.976;2023-05-10T14:58:14;2.20;;;0.60;;
15936;SDS011;9163;48.818;8.976;2023-05-10T15:00:41;1.10;;;0.50;;
15936;SDS011;9163;48.818;8.976;2023-05-10T15:03:10;1.17;;;0.60;;
15936;SDS011;9163;48.818;8.976;2023-05-10T15:05:37;2.33;;;0.60;;
15936;SDS011;9163;48.818;8.976;2023-05-10T15:08:05;0.60;;;0.40;;
15936;SDS011;9163;48.818;8.976;2023-05-10T15:10:32;0.97;;;0.40;;
15936;SDS011;9163;48.818;8.976;2023-05-10T15:12:59;1.20;;;0.50;;
15936;SDS011;9163;48.818;8.976;2023-05-10T15:15:26;1.17;;;0.33;;
15936;SDS011;9163;48.818;8.976;2023-05-10T15:17:54;1.17;;;0.50;;
15936;SDS011;9163;48.818;8.976;2023-05-10T15:20:22;0.80;;;0.50;;
15936;SDS011;9163;48.818;8.976;2023-05-10T15:22:50;0.80;;;0.50;;